Etusivu
METAR-TAF:

METAR-TAF

Lentoasemat :

Marianna Municipal Airport

Marianna, Florida, Yhdysvallat

Leveyspiiri: 30-50-12N, Pituuspiiri: 085-11-01W, korkeus merenpinnasta: 34 m

Tämänhetkinen sää

Tämä raportti tehtiin 54 minuuttia sitten, kello 13.53 UTC
Tuuli 7 kn etelästä/kaakosta
Lämpötila 20°C
Kosteus 68%
Ilmanpaine 1015 hPa
Näkyvyys: 16.1 km
selkeää

METAR: KMAI 251353Z AUTO 15007KT 10SM CLR 20/14 A2997 RMK AO2 SLP148 T02000139

Aika: 09:47 (14:47 UTC)


TAF: puuttuu

Säähavainnot ja -ennusteet yli 4000 lentoasemalta (METAR- ja TAF-raportit).

Käytössä olevat sääasemat on merkitty karttaan keltaisilla ja punaisilla pisteillä.

Aseta hiiri pisteen päälle nähdäksesi sääaseman nimen.

Klikkaa sitten nähdäksesi säähavainnot ja -ennusteet.

Kartan vaihtaminen: klikkaa mustalla rastilla varustettuja vihreitä pisteitä, niin voit zoomata sisään; viivalla varustettua vihreää pistettä, niin voit zoomata ulos tai vihreitä nuolia, niin pääset viereisille kartoille.


METAR-TAF: